sensor_id;sensor_type;location;lat;lon;timestamp;P1;durP1;ratioP1;P2;durP2;ratioP2
4756;SDS011;2392;52.578;13.426;2023-07-24T00:00:01;8.40;;;6.87;;
4756;SDS011;2392;52.578;13.426;2023-07-24T00:02:30;6.60;;;6.10;;
4756;SDS011;2392;52.578;13.426;2023-07-24T00:04:58;7.53;;;6.87;;
4756;SDS011;2392;52.578;13.426;2023-07-24T00:07:25;9.30;;;6.30;;
4756;SDS011;2392;52.578;13.426;2023-07-24T00:09:52;7.03;;;6.43;;
4756;SDS011;2392;52.578;13.426;2023-07-24T00:12:20;7.27;;;6.53;;
4756;SDS011;2392;52.578;13.426;2023-07-24T00:14:47;6.77;;;6.17;;
4756;SDS011;2392;52.578;13.426;2023-07-24T00:17:15;6.53;;;6.03;;
4756;SDS011;2392;52.578;13.426;2023-07-24T00:19:42;7.13;;;6.43;;
4756;SDS011;2392;52.578;13.426;2023-07-24T00:22:10;7.50;;;6.80;;
4756;SDS011;2392;52.578;13.426;2023-07-24T00:24:37;6.47;;;5.87;;
4756;SDS011;2392;52.578;13.426;2023-07-24T00:27:04;7.13;;;5.60;;
4756;SDS011;2392;52.578;13.426;2023-07-24T00:29:31;5.97;;;5.47;;
4756;SDS011;2392;52.578;13.426;2023-07-24T00:31:59;9.63;;;5.60;;
4756;SDS011;2392;52.578;13.426;2023-07-24T00:34:27;12.20;;;6.07;;
4756;SDS011;2392;52.578;13.426;2023-07-24T00:36:54;6.03;;;5.53;;
4756;SDS011;2392;52.578;13.426;2023-07-24T00:39:24;5.87;;;5.37;;
4756;SDS011;2392;52.578;13.426;2023-07-24T00:41:54;7.10;;;4.87;;
4756;SDS011;2392;52.578;13.426;2023-07-24T00:44:21;6.30;;;5.80;;
4756;SDS011;2392;52.578;13.426;2023-07-24T00:46:48;6.17;;;5.57;;
4756;SDS011;2392;52.578;13.426;2023-07-24T00:49:16;9.03;;;5.43;;
4756;SDS011;2392;52.578;13.426;2023-07-24T00:51:43;5.83;;;5.40;;
4756;SDS011;2392;52.578;13.426;2023-07-24T00:54:10;5.93;;;5.53;;
4756;SDS011;2392;52.578;13.426;2023-07-24T00:56:40;10.97;;;6.17;;
4756;SDS011;2392;52.578;13.426;2023-07-24T00:59:08;6.07;;;5.57;;
4756;SDS011;2392;52.578;13.426;2023-07-24T01:01:35;4.93;;;4.63;;
4756;SDS011;2392;52.578;13.426;2023-07-24T01:04:04;6.03;;;5.50;;
4756;SDS011;2392;52.578;13.426;2023-07-24T01:06:33;6.13;;;5.20;;
4756;SDS011;2392;52.578;13.426;2023-07-24T01:09:02;5.30;;;4.57;;
4756;SDS011;2392;52.578;13.426;2023-07-24T01:11:30;4.80;;;4.50;;
4756;SDS011;2392;52.578;13.426;2023-07-24T01:14:04;6.33;;;5.83;;
4756;SDS011;2392;52.578;13.426;2023-07-24T01:16:36;5.93;;;5.43;;
4756;SDS011;2392;52.578;13.426;2023-07-24T01:19:05;7.40;;;5.27;;
4756;SDS011;2392;52.578;13.426;2023-07-24T01:21:44;6.60;;;5.20;;
4756;SDS011;2392;52.578;13.426;2023-07-24T01:24:28;6.10;;;5.60;;
4756;SDS011;2392;52.578;13.426;2023-07-24T01:27:00;6.00;;;5.60;;
4756;SDS011;2392;52.578;13.426;2023-07-24T01:29:29;5.57;;;5.07;;
4756;SDS011;2392;52.578;13.426;2023-07-24T01:31:56;5.43;;;5.03;;
4756;SDS011;2392;52.578;13.426;2023-07-24T01:34:23;5.47;;;5.00;;
4756;SDS011;2392;52.578;13.426;2023-07-24T01:36:50;6.57;;;6.07;;
4756;SDS011;2392;52.578;13.426;2023-07-24T01:39:18;5.23;;;4.83;;
4756;SDS011;2392;52.578;13.426;2023-07-24T01:41:47;6.00;;;5.57;;
4756;SDS011;2392;52.578;13.426;2023-07-24T01:44:16;6.67;;;4.77;;
4756;SDS011;2392;52.578;13.426;2023-07-24T01:46:44;6.07;;;4.93;;
4756;SDS011;2392;52.578;13.426;2023-07-24T01:49:11;7.20;;;4.63;;
4756;SDS011;2392;52.578;13.426;2023-07-24T01:51:38;5.53;;;4.83;;
4756;SDS011;2392;52.578;13.426;2023-07-24T01:54:05;5.40;;;5.00;;
4756;SDS011;2392;52.578;13.426;2023-07-24T01:56:33;5.40;;;5.10;;
4756;SDS011;2392;52.578;13.426;2023-07-24T01:59:02;4.97;;;4.57;;
4756;SDS011;2392;52.578;13.426;2023-07-24T02:01:31;4.87;;;4.47;;
4756;SDS011;2392;52.578;13.426;2023-07-24T02:03:58;5.03;;;4.73;;
4756;SDS011;2392;52.578;13.426;2023-07-24T02:06:25;5.23;;;4.73;;
4756;SDS011;2392;52.578;13.426;2023-07-24T02:08:52;5.20;;;4.80;;
4756;SDS011;2392;52.578;13.426;2023-07-24T02:11:19;5.10;;;4.80;;
4756;SDS011;2392;52.578;13.426;2023-07-24T02:13:46;4.80;;;4.50;;
4756;SDS011;2392;52.578;13.426;2023-07-24T02:16:13;4.70;;;4.37;;
4756;SDS011;2392;52.578;13.426;2023-07-24T02:18:42;5.53;;;5.13;;
4756;SDS011;2392;52.578;13.426;2023-07-24T02:21:09;6.17;;;5.60;;
4756;SDS011;2392;52.578;13.426;2023-07-24T02:23:36;5.50;;;5.00;;
4756;SDS011;2392;52.578;13.426;2023-07-24T02:26:04;7.33;;;5.20;;
4756;SDS011;2392;52.578;13.426;2023-07-24T02:28:33;4.93;;;4.63;;
4756;SDS011;2392;52.578;13.426;2023-07-24T02:31:00;7.83;;;4.97;;
4756;SDS011;2392;52.578;13.426;2023-07-24T02:33:27;5.37;;;5.07;;
4756;SDS011;2392;52.578;13.426;2023-07-24T02:35:56;5.30;;;4.80;;
4756;SDS011;2392;52.578;13.426;2023-07-24T02:38:23;5.20;;;4.80;;
4756;SDS011;2392;52.578;13.426;2023-07-24T02:40:50;5.53;;;5.10;;
4756;SDS011;2392;52.578;13.426;2023-07-24T02:43:17;5.43;;;4.93;;
4756;SDS011;2392;52.578;13.426;2023-07-24T02:45:44;8.50;;;5.70;;
4756;SDS011;2392;52.578;13.426;2023-07-24T02:48:11;5.07;;;4.77;;
4756;SDS011;2392;52.578;13.426;2023-07-24T02:50:38;5.50;;;5.10;;
4756;SDS011;2392;52.578;13.426;2023-07-24T02:53:06;5.60;;;5.20;;
4756;SDS011;2392;52.578;13.426;2023-07-24T02:55:33;4.93;;;4.63;;
4756;SDS011;2392;52.578;13.426;2023-07-24T02:58:00;5.87;;;5.27;;
4756;SDS011;2392;52.578;13.426;2023-07-24T03:00:28;5.10;;;4.63;;
4756;SDS011;2392;52.578;13.426;2023-07-24T03:02:55;5.80;;;5.17;;
4756;SDS011;2392;52.578;13.426;2023-07-24T03:05:22;5.03;;;4.63;;
4756;SDS011;2392;52.578;13.426;2023-07-24T03:07:49;4.93;;;4.63;;
4756;SDS011;2392;52.578;13.426;2023-07-24T03:10:17;5.10;;;4.70;;
4756;SDS011;2392;52.578;13.426;2023-07-24T03:12:45;5.47;;;5.07;;
4756;SDS011;2392;52.578;13.426;2023-07-24T03:15:12;5.10;;;4.80;;
4756;SDS011;2392;52.578;13.426;2023-07-24T03:17:39;5.53;;;5.13;;
4756;SDS011;2392;52.578;13.426;2023-07-24T03:20:09;5.20;;;4.20;;
4756;SDS011;2392;52.578;13.426;2023-07-24T03:22:40;4.93;;;4.60;;
4756;SDS011;2392;52.578;13.426;2023-07-24T03:25:07;4.53;;;4.23;;
4756;SDS011;2392;52.578;13.426;2023-07-24T03:27:36;5.03;;;4.63;;
4756;SDS011;2392;52.578;13.426;2023-07-24T03:30:04;4.90;;;4.60;;
4756;SDS011;2392;52.578;13.426;2023-07-24T03:32:32;4.90;;;4.60;;
4756;SDS011;2392;52.578;13.426;2023-07-24T03:34:59;5.37;;;4.70;;
4756;SDS011;2392;52.578;13.426;2023-07-24T03:37:26;4.93;;;4.53;;
4756;SDS011;2392;52.578;13.426;2023-07-24T03:39:53;5.00;;;4.70;;
4756;SDS011;2392;52.578;13.426;2023-07-24T03:42:26;4.50;;;3.73;;
4756;SDS011;2392;52.578;13.426;2023-07-24T03:44:55;4.97;;;4.67;;
4756;SDS011;2392;52.578;13.426;2023-07-24T03:47:23;5.10;;;4.70;;
4756;SDS011;2392;52.578;13.426;2023-07-24T03:49:50;4.90;;;4.50;;
4756;SDS011;2392;52.578;13.426;2023-07-24T03:52:17;4.70;;;4.40;;
4756;SDS011;2392;52.578;13.426;2023-07-24T03:54:44;4.27;;;4.00;;
4756;SDS011;2392;52.578;13.426;2023-07-24T03:57:12;6.83;;;5.57;;
4756;SDS011;2392;52.578;13.426;2023-07-24T03:59:39;4.70;;;4.40;;
4756;SDS011;2392;52.578;13.426;2023-07-24T04:02:07;4.53;;;4.20;;
4756;SDS011;2392;52.578;13.426;2023-07-24T04:04:34;4.93;;;4.53;;
4756;SDS011;2392;52.578;13.426;2023-07-24T04:07:02;5.07;;;4.77;;
4756;SDS011;2392;52.578;13.426;2023-07-24T04:09:29;7.33;;;4.17;;
4756;SDS011;2392;52.578;13.426;2023-07-24T04:11:56;4.93;;;4.63;;
4756;SDS011;2392;52.578;13.426;2023-07-24T04:14:23;5.30;;;4.90;;
4756;SDS011;2392;52.578;13.426;2023-07-24T04:16:50;4.53;;;4.10;;
4756;SDS011;2392;52.578;13.426;2023-07-24T04:19:18;4.80;;;4.47;;
4756;SDS011;2392;52.578;13.426;2023-07-24T04:21:45;4.07;;;3.87;;
4756;SDS011;2392;52.578;13.426;2023-07-24T04:24:12;5.13;;;4.60;;
4756;SDS011;2392;52.578;13.426;2023-07-24T04:26:40;4.40;;;4.20;;
4756;SDS011;2392;52.578;13.426;2023-07-24T04:29:07;5.93;;;5.40;;
4756;SDS011;2392;52.578;13.426;2023-07-24T04:31:34;4.67;;;4.37;;
4756;SDS011;2392;52.578;13.426;2023-07-24T04:34:01;4.53;;;4.30;;
4756;SDS011;2392;52.578;13.426;2023-07-24T04:36:30;4.80;;;4.33;;
4756;SDS011;2392;52.578;13.426;2023-07-24T04:38:57;11.40;;;4.30;;
4756;SDS011;2392;52.578;13.426;2023-07-24T04:41:24;4.30;;;4.00;;
4756;SDS011;2392;52.578;13.426;2023-07-24T04:43:51;5.23;;;4.37;;
4756;SDS011;2392;52.578;13.426;2023-07-24T04:46:18;4.20;;;4.00;;
4756;SDS011;2392;52.578;13.426;2023-07-24T04:48:45;4.60;;;4.30;;
4756;SDS011;2392;52.578;13.426;2023-07-24T04:51:12;4.73;;;4.43;;
4756;SDS011;2392;52.578;13.426;2023-07-24T04:53:40;4.67;;;4.37;;
4756;SDS011;2392;52.578;13.426;2023-07-24T04:56:08;4.00;;;3.80;;
4756;SDS011;2392;52.578;13.426;2023-07-24T04:58:35;4.40;;;4.10;;
4756;SDS011;2392;52.578;13.426;2023-07-24T05:01:03;4.33;;;4.00;;
4756;SDS011;2392;52.578;13.426;2023-07-24T05:03:30;4.67;;;4.37;;
4756;SDS011;2392;52.578;13.426;2023-07-24T05:05:57;4.30;;;4.00;;
4756;SDS011;2392;52.578;13.426;2023-07-24T05:08:24;4.00;;;3.80;;
4756;SDS011;2392;52.578;13.426;2023-07-24T05:10:56;4.53;;;4.33;;
4756;SDS011;2392;52.578;13.426;2023-07-24T05:13:23;5.27;;;4.10;;
4756;SDS011;2392;52.578;13.426;2023-07-24T05:15:51;3.80;;;3.60;;
4756;SDS011;2392;52.578;13.426;2023-07-24T05:18:18;4.10;;;3.90;;
4756;SDS011;2392;52.578;13.426;2023-07-24T05:20:45;4.27;;;4.07;;
4756;SDS011;2392;52.578;13.426;2023-07-24T05:23:13;4.40;;;4.10;;
4756;SDS011;2392;52.578;13.426;2023-07-24T05:25:41;3.87;;;3.67;;
4756;SDS011;2392;52.578;13.426;2023-07-24T05:28:09;4.53;;;4.30;;
4756;SDS011;2392;52.578;13.426;2023-07-24T05:30:36;4.77;;;4.30;;
4756;SDS011;2392;52.578;13.426;2023-07-24T05:33:03;4.47;;;4.27;;
4756;SDS011;2392;52.578;13.426;2023-07-24T05:35:30;4.00;;;3.80;;
4756;SDS011;2392;52.578;13.426;2023-07-24T05:37:57;4.00;;;3.80;;
4756;SDS011;2392;52.578;13.426;2023-07-24T05:40:24;4.87;;;4.57;;
4756;SDS011;2392;52.578;13.426;2023-07-24T05:42:51;4.20;;;4.00;;
4756;SDS011;2392;52.578;13.426;2023-07-24T05:45:19;4.87;;;4.33;;
4756;SDS011;2392;52.578;13.426;2023-07-24T05:47:46;4.20;;;4.00;;
4756;SDS011;2392;52.578;13.426;2023-07-24T05:50:13;5.63;;;3.77;;
4756;SDS011;2392;52.578;13.426;2023-07-24T05:52:40;5.53;;;4.27;;
4756;SDS011;2392;52.578;13.426;2023-07-24T05:55:08;3.93;;;3.73;;
4756;SDS011;2392;52.578;13.426;2023-07-24T05:57:35;4.77;;;4.57;;
4756;SDS011;2392;52.578;13.426;2023-07-24T06:00:02;3.83;;;3.63;;
4756;SDS011;2392;52.578;13.426;2023-07-24T06:02:38;3.90;;;3.60;;
4756;SDS011;2392;52.578;13.426;2023-07-24T06:05:05;4.27;;;3.90;;
4756;SDS011;2392;52.578;13.426;2023-07-24T06:07:32;3.67;;;3.57;;
4756;SDS011;2392;52.578;13.426;2023-07-24T06:09:59;5.53;;;4.07;;
4756;SDS011;2392;52.578;13.426;2023-07-24T06:12:26;4.40;;;4.20;;
4756;SDS011;2392;52.578;13.426;2023-07-24T06:14:53;4.87;;;4.40;;
4756;SDS011;2392;52.578;13.426;2023-07-24T06:17:20;4.50;;;4.30;;
4756;SDS011;2392;52.578;13.426;2023-07-24T06:19:48;9.20;;;4.23;;
4756;SDS011;2392;52.578;13.426;2023-07-24T06:22:15;4.47;;;4.27;;
4756;SDS011;2392;52.578;13.426;2023-07-24T06:24:42;4.97;;;4.60;;
4756;SDS011;2392;52.578;13.426;2023-07-24T06:27:09;4.87;;;4.57;;
4756;SDS011;2392;52.578;13.426;2023-07-24T06:29:36;4.17;;;3.97;;
4756;SDS011;2392;52.578;13.426;2023-07-24T06:32:04;4.20;;;4.00;;
4756;SDS011;2392;52.578;13.426;2023-07-24T06:34:32;4.50;;;4.30;;
4756;SDS011;2392;52.578;13.426;2023-07-24T06:37:00;4.83;;;4.43;;
4756;SDS011;2392;52.578;13.426;2023-07-24T06:39:27;4.60;;;4.30;;
4756;SDS011;2392;52.578;13.426;2023-07-24T06:41:54;4.20;;;3.90;;
4756;SDS011;2392;52.578;13.426;2023-07-24T06:44:21;4.40;;;4.10;;
4756;SDS011;2392;52.578;13.426;2023-07-24T06:46:48;4.50;;;4.20;;
4756;SDS011;2392;52.578;13.426;2023-07-24T06:49:15;4.33;;;4.13;;
4756;SDS011;2392;52.578;13.426;2023-07-24T06:51:42;4.10;;;3.80;;
4756;SDS011;2392;52.578;13.426;2023-07-24T06:54:10;4.90;;;4.60;;
4756;SDS011;2392;52.578;13.426;2023-07-24T06:56:37;5.20;;;4.37;;
4756;SDS011;2392;52.578;13.426;2023-07-24T06:59:05;5.20;;;4.70;;
4756;SDS011;2392;52.578;13.426;2023-07-24T07:01:32;4.70;;;4.50;;
4756;SDS011;2392;52.578;13.426;2023-07-24T07:03:59;4.70;;;4.50;;
4756;SDS011;2392;52.578;13.426;2023-07-24T07:06:26;4.43;;;4.10;;
4756;SDS011;2392;52.578;13.426;2023-07-24T07:08:53;4.50;;;4.20;;
4756;SDS011;2392;52.578;13.426;2023-07-24T07:11:21;4.80;;;4.50;;
4756;SDS011;2392;52.578;13.426;2023-07-24T07:13:48;4.30;;;4.00;;
4756;SDS011;2392;52.578;13.426;2023-07-24T07:16:15;3.77;;;3.57;;
4756;SDS011;2392;52.578;13.426;2023-07-24T07:18:44;4.53;;;4.23;;
4756;SDS011;2392;52.578;13.426;2023-07-24T07:21:11;4.13;;;3.93;;
4756;SDS011;2392;52.578;13.426;2023-07-24T07:23:38;4.13;;;3.93;;
4756;SDS011;2392;52.578;13.426;2023-07-24T07:26:05;4.43;;;4.23;;
4756;SDS011;2392;52.578;13.426;2023-07-24T07:28:33;4.27;;;4.00;;
4756;SDS011;2392;52.578;13.426;2023-07-24T07:31:02;4.57;;;4.17;;
4756;SDS011;2392;52.578;13.426;2023-07-24T07:33:29;4.80;;;4.60;;
4756;SDS011;2392;52.578;13.426;2023-07-24T07:35:56;4.37;;;4.17;;
4756;SDS011;2392;52.578;13.426;2023-07-24T07:38:23;4.20;;;4.00;;
4756;SDS011;2392;52.578;13.426;2023-07-24T07:40:50;4.03;;;3.83;;
4756;SDS011;2392;52.578;13.426;2023-07-24T07:43:17;4.57;;;4.17;;
4756;SDS011;2392;52.578;13.426;2023-07-24T07:45:46;4.63;;;4.33;;
4756;SDS011;2392;52.578;13.426;2023-07-24T07:48:13;4.77;;;4.37;;
4756;SDS011;2392;52.578;13.426;2023-07-24T07:50:40;4.33;;;4.13;;
4756;SDS011;2392;52.578;13.426;2023-07-24T07:53:07;4.03;;;3.83;;
4756;SDS011;2392;52.578;13.426;2023-07-24T07:55:34;4.13;;;3.90;;
4756;SDS011;2392;52.578;13.426;2023-07-24T07:58:01;4.00;;;3.80;;
4756;SDS011;2392;52.578;13.426;2023-07-24T08:00:28;4.30;;;4.10;;
4756;SDS011;2392;52.578;13.426;2023-07-24T08:02:56;4.23;;;4.03;;
4756;SDS011;2392;52.578;13.426;2023-07-24T08:05:23;4.53;;;4.23;;
4756;SDS011;2392;52.578;13.426;2023-07-24T08:07:50;3.93;;;3.67;;
4756;SDS011;2392;52.578;13.426;2023-07-24T08:10:17;5.07;;;4.13;;
4756;SDS011;2392;52.578;13.426;2023-07-24T08:12:44;5.37;;;4.10;;
4756;SDS011;2392;52.578;13.426;2023-07-24T08:15:11;5.17;;;3.93;;
4756;SDS011;2392;52.578;13.426;2023-07-24T08:17:38;4.60;;;4.30;;
4756;SDS011;2392;52.578;13.426;2023-07-24T08:20:07;4.47;;;4.07;;
4756;SDS011;2392;52.578;13.426;2023-07-24T08:22:34;4.10;;;3.90;;
4756;SDS011;2392;52.578;13.426;2023-07-24T08:25:02;3.90;;;3.70;;
4756;SDS011;2392;52.578;13.426;2023-07-24T08:27:29;4.23;;;3.93;;
4756;SDS011;2392;52.578;13.426;2023-07-24T08:29:57;4.13;;;3.93;;
4756;SDS011;2392;52.578;13.426;2023-07-24T08:32:24;4.17;;;3.83;;
4756;SDS011;2392;52.578;13.426;2023-07-24T08:34:51;4.10;;;3.83;;
4756;SDS011;2392;52.578;13.426;2023-07-24T08:37:19;3.77;;;3.60;;
4756;SDS011;2392;52.578;13.426;2023-07-24T08:39:46;4.97;;;4.67;;
4756;SDS011;2392;52.578;13.426;2023-07-24T08:42:13;4.57;;;4.37;;
4756;SDS011;2392;52.578;13.426;2023-07-24T08:44:40;4.50;;;4.20;;
4756;SDS011;2392;52.578;13.426;2023-07-24T08:47:10;4.60;;;4.20;;
4756;SDS011;2392;52.578;13.426;2023-07-24T08:49:38;4.30;;;4.10;;
4756;SDS011;2392;52.578;13.426;2023-07-24T08:52:06;4.53;;;4.10;;
4756;SDS011;2392;52.578;13.426;2023-07-24T08:54:36;5.63;;;4.00;;
4756;SDS011;2392;52.578;13.426;2023-07-24T08:57:04;4.87;;;4.47;;
4756;SDS011;2392;52.578;13.426;2023-07-24T08:59:33;4.47;;;4.27;;
4756;SDS011;2392;52.578;13.426;2023-07-24T09:02:01;4.53;;;4.20;;
4756;SDS011;2392;52.578;13.426;2023-07-24T09:04:28;4.37;;;4.07;;
4756;SDS011;2392;52.578;13.426;2023-07-24T09:06:56;4.43;;;4.23;;
4756;SDS011;2392;52.578;13.426;2023-07-24T09:09:28;4.40;;;4.20;;
4756;SDS011;2392;52.578;13.426;2023-07-24T09:11:57;4.67;;;4.37;;
4756;SDS011;2392;52.578;13.426;2023-07-24T09:14:25;4.93;;;4.63;;
4756;SDS011;2392;52.578;13.426;2023-07-24T09:17:03;4.87;;;4.67;;
4756;SDS011;2392;52.578;13.426;2023-07-24T09:19:31;3.90;;;3.70;;
4756;SDS011;2392;52.578;13.426;2023-07-24T09:22:08;3.80;;;3.60;;
4756;SDS011;2392;52.578;13.426;2023-07-24T09:24:36;4.03;;;3.80;;
4756;SDS011;2392;52.578;13.426;2023-07-24T09:27:06;4.30;;;4.00;;
4756;SDS011;2392;52.578;13.426;2023-07-24T09:29:35;3.77;;;3.57;;
4756;SDS011;2392;52.578;13.426;2023-07-24T09:32:05;4.53;;;4.03;;
4756;SDS011;2392;52.578;13.426;2023-07-24T09:34:32;4.20;;;3.80;;
4756;SDS011;2392;52.578;13.426;2023-07-24T09:36:59;4.30;;;4.03;;
4756;SDS011;2392;52.578;13.426;2023-07-24T09:39:27;4.70;;;4.37;;
4756;SDS011;2392;52.578;13.426;2023-07-24T09:42:02;4.30;;;4.00;;
4756;SDS011;2392;52.578;13.426;2023-07-24T09:44:31;4.17;;;3.97;;
4756;SDS011;2392;52.578;13.426;2023-07-24T09:46:58;3.73;;;3.53;;
4756;SDS011;2392;52.578;13.426;2023-07-24T09:49:26;4.77;;;4.43;;
4756;SDS011;2392;52.578;13.426;2023-07-24T09:51:53;3.80;;;3.60;;
4756;SDS011;2392;52.578;13.426;2023-07-24T09:54:23;4.40;;;4.10;;
4756;SDS011;2392;52.578;13.426;2023-07-24T09:56:54;3.80;;;3.60;;
4756;SDS011;2392;52.578;13.426;2023-07-24T09:59:22;4.23;;;3.87;;
4756;SDS011;2392;52.578;13.426;2023-07-24T10:01:53;6.33;;;3.80;;
4756;SDS011;2392;52.578;13.426;2023-07-24T10:04:20;4.60;;;4.30;;
4756;SDS011;2392;52.578;13.426;2023-07-24T10:06:49;7.63;;;4.07;;
4756;SDS011;2392;52.578;13.426;2023-07-24T10:09:17;4.27;;;4.07;;
4756;SDS011;2392;52.578;13.426;2023-07-24T10:11:48;4.80;;;4.50;;
4756;SDS011;2392;52.578;13.426;2023-07-24T10:14:15;4.60;;;4.10;;
4756;SDS011;2392;52.578;13.426;2023-07-24T10:16:44;4.70;;;4.17;;
4756;SDS011;2392;52.578;13.426;2023-07-24T10:19:15;4.50;;;4.20;;
4756;SDS011;2392;52.578;13.426;2023-07-24T10:21:46;4.93;;;4.53;;
4756;SDS011;2392;52.578;13.426;2023-07-24T10:24:13;4.60;;;4.20;;
4756;SDS011;2392;52.578;13.426;2023-07-24T10:26:41;4.03;;;3.83;;
4756;SDS011;2392;52.578;13.426;2023-07-24T10:29:08;4.70;;;4.40;;
4756;SDS011;2392;52.578;13.426;2023-07-24T10:31:35;5.23;;;4.73;;
4756;SDS011;2392;52.578;13.426;2023-07-24T10:34:05;5.37;;;4.97;;
4756;SDS011;2392;52.578;13.426;2023-07-24T10:36:35;5.00;;;4.63;;
4756;SDS011;2392;52.578;13.426;2023-07-24T10:39:12;4.80;;;4.50;;
4756;SDS011;2392;52.578;13.426;2023-07-24T10:41:40;4.63;;;4.37;;
4756;SDS011;2392;52.578;13.426;2023-07-24T10:44:09;6.23;;;5.00;;
4756;SDS011;2392;52.578;13.426;2023-07-24T10:46:37;4.77;;;4.47;;
4756;SDS011;2392;52.578;13.426;2023-07-24T10:49:04;5.20;;;4.80;;
4756;SDS011;2392;52.578;13.426;2023-07-24T10:51:32;4.53;;;4.23;;
4756;SDS011;2392;52.578;13.426;2023-07-24T10:54:03;4.90;;;4.50;;
4756;SDS011;2392;52.578;13.426;2023-07-24T10:56:31;5.73;;;5.23;;
4756;SDS011;2392;52.578;13.426;2023-07-24T10:59:02;5.90;;;5.37;;
4756;SDS011;2392;52.578;13.426;2023-07-24T11:01:31;5.57;;;5.23;;
4756;SDS011;2392;52.578;13.426;2023-07-24T11:03:58;6.87;;;6.37;;
4756;SDS011;2392;52.578;13.426;2023-07-24T11:06:26;5.53;;;5.10;;
4756;SDS011;2392;52.578;13.426;2023-07-24T11:08:54;6.30;;;5.43;;
4756;SDS011;2392;52.578;13.426;2023-07-24T11:11:28;7.30;;;5.60;;
4756;SDS011;2392;52.578;13.426;2023-07-24T11:13:55;5.83;;;5.33;;
4756;SDS011;2392;52.578;13.426;2023-07-24T11:16:23;5.80;;;5.30;;
4756;SDS011;2392;52.578;13.426;2023-07-24T11:18:50;5.83;;;5.37;;
4756;SDS011;2392;52.578;13.426;2023-07-24T11:21:18;6.00;;;5.60;;
4756;SDS011;2392;52.578;13.426;2023-07-24T11:23:48;6.73;;;6.00;;
4756;SDS011;2392;52.578;13.426;2023-07-24T11:26:18;6.70;;;6.10;;
4756;SDS011;2392;52.578;13.426;2023-07-24T11:28:48;6.03;;;5.50;;
4756;SDS011;2392;52.578;13.426;2023-07-24T11:31:15;6.63;;;6.03;;
4756;SDS011;2392;52.578;13.426;2023-07-24T11:33:44;6.07;;;5.47;;
4756;SDS011;2392;52.578;13.426;2023-07-24T11:36:13;7.30;;;6.30;;
4756;SDS011;2392;52.578;13.426;2023-07-24T11:38:41;7.17;;;6.50;;
4756;SDS011;2392;52.578;13.426;2023-07-24T11:41:08;9.03;;;6.17;;
4756;SDS011;2392;52.578;13.426;2023-07-24T11:43:35;7.20;;;6.60;;
4756;SDS011;2392;52.578;13.426;2023-07-24T11:46:21;6.27;;;5.67;;
4756;SDS011;2392;52.578;13.426;2023-07-24T11:48:49;6.20;;;5.70;;
4756;SDS011;2392;52.578;13.426;2023-07-24T11:51:18;6.30;;;5.70;;
4756;SDS011;2392;52.578;13.426;2023-07-24T11:53:45;11.83;;;6.43;;
4756;SDS011;2392;52.578;13.426;2023-07-24T11:56:13;6.10;;;5.50;;
4756;SDS011;2392;52.578;13.426;2023-07-24T11:58:41;7.40;;;6.70;;
4756;SDS011;2392;52.578;13.426;2023-07-24T12:01:08;7.40;;;6.60;;
4756;SDS011;2392;52.578;13.426;2023-07-24T12:03:36;6.90;;;6.20;;
4756;SDS011;2392;52.578;13.426;2023-07-24T12:06:03;11.93;;;6.23;;
4756;SDS011;2392;52.578;13.426;2023-07-24T12:08:31;6.67;;;6.07;;
4756;SDS011;2392;52.578;13.426;2023-07-24T12:10:59;7.30;;;6.60;;
4756;SDS011;2392;52.578;13.426;2023-07-24T12:13:26;6.97;;;6.33;;
4756;SDS011;2392;52.578;13.426;2023-07-24T12:15:54;8.13;;;6.70;;
4756;SDS011;2392;52.578;13.426;2023-07-24T12:18:21;6.97;;;6.27;;
4756;SDS011;2392;52.578;13.426;2023-07-24T12:20:49;7.83;;;6.83;;
4756;SDS011;2392;52.578;13.426;2023-07-24T12:23:16;7.47;;;5.90;;
4756;SDS011;2392;52.578;13.426;2023-07-24T12:25:43;6.87;;;6.27;;
4756;SDS011;2392;52.578;13.426;2023-07-24T12:28:10;9.33;;;7.53;;
4756;SDS011;2392;52.578;13.426;2023-07-24T12:30:37;10.03;;;6.80;;
4756;SDS011;2392;52.578;13.426;2023-07-24T12:33:04;9.63;;;7.50;;
4756;SDS011;2392;52.578;13.426;2023-07-24T12:35:31;7.60;;;7.00;;
4756;SDS011;2392;52.578;13.426;2023-07-24T12:38:00;10.27;;;7.27;;
4756;SDS011;2392;52.578;13.426;2023-07-24T12:40:27;9.33;;;6.90;;
4756;SDS011;2392;52.578;13.426;2023-07-24T12:42:54;8.20;;;7.00;;
4756;SDS011;2392;52.578;13.426;2023-07-24T12:45:21;7.20;;;6.57;;
4756;SDS011;2392;52.578;13.426;2023-07-24T12:47:48;7.90;;;7.20;;
4756;SDS011;2392;52.578;13.426;2023-07-24T12:50:15;7.37;;;6.67;;
4756;SDS011;2392;52.578;13.426;2023-07-24T12:52:42;9.23;;;7.10;;
4756;SDS011;2392;52.578;13.426;2023-07-24T12:55:11;8.10;;;7.03;;
4756;SDS011;2392;52.578;13.426;2023-07-24T12:57:38;9.30;;;6.67;;
4756;SDS011;2392;52.578;13.426;2023-07-24T13:00:05;6.30;;;5.80;;
4756;SDS011;2392;52.578;13.426;2023-07-24T13:02:34;6.97;;;6.37;;
4756;SDS011;2392;52.578;13.426;2023-07-24T13:05:01;7.27;;;6.67;;
4756;SDS011;2392;52.578;13.426;2023-07-24T13:07:28;6.73;;;6.13;;
4756;SDS011;2392;52.578;13.426;2023-07-24T13:09:55;6.97;;;6.30;;
4756;SDS011;2392;52.578;13.426;2023-07-24T13:12:23;6.67;;;6.17;;
4756;SDS011;2392;52.578;13.426;2023-07-24T13:14:50;7.30;;;6.70;;
4756;SDS011;2392;52.578;13.426;2023-07-24T13:17:17;6.87;;;6.17;;
4756;SDS011;2392;52.578;13.426;2023-07-24T13:19:44;7.63;;;5.70;;
4756;SDS011;2392;52.578;13.426;2023-07-24T13:22:11;9.00;;;6.27;;
4756;SDS011;2392;52.578;13.426;2023-07-24T13:24:38;10.03;;;7.47;;
4756;SDS011;2392;52.578;13.426;2023-07-24T13:27:05;7.37;;;6.67;;
4756;SDS011;2392;52.578;13.426;2023-07-24T13:29:34;6.03;;;5.50;;
4756;SDS011;2392;52.578;13.426;2023-07-24T13:32:01;7.50;;;6.17;;
4756;SDS011;2392;52.578;13.426;2023-07-24T13:34:28;6.47;;;5.90;;
4756;SDS011;2392;52.578;13.426;2023-07-24T13:36:55;8.00;;;5.87;;
4756;SDS011;2392;52.578;13.426;2023-07-24T13:39:22;6.17;;;5.57;;
4756;SDS011;2392;52.578;13.426;2023-07-24T13:41:49;6.00;;;5.50;;
4756;SDS011;2392;52.578;13.426;2023-07-24T13:44:16;6.27;;;5.63;;
4756;SDS011;2392;52.578;13.426;2023-07-24T13:46:45;6.10;;;5.70;;
4756;SDS011;2392;52.578;13.426;2023-07-24T13:49:12;7.57;;;5.00;;
4756;SDS011;2392;52.578;13.426;2023-07-24T13:51:39;6.83;;;5.37;;
4756;SDS011;2392;52.578;13.426;2023-07-24T13:54:06;7.80;;;5.63;;
4756;SDS011;2392;52.578;13.426;2023-07-24T13:56:33;6.23;;;5.60;;
4756;SDS011;2392;52.578;13.426;2023-07-24T13:59:01;5.60;;;5.20;;
4756;SDS011;2392;52.578;13.426;2023-07-24T14:01:28;5.50;;;5.00;;
4756;SDS011;2392;52.578;13.426;2023-07-24T14:03:56;5.93;;;5.53;;
4756;SDS011;2392;52.578;13.426;2023-07-24T14:06:23;8.03;;;4.63;;
4756;SDS011;2392;52.578;13.426;2023-07-24T14:08:50;5.43;;;5.00;;
4756;SDS011;2392;52.578;13.426;2023-07-24T14:11:17;4.73;;;4.47;;
4756;SDS011;2392;52.578;13.426;2023-07-24T14:13:44;6.20;;;5.40;;
4756;SDS011;2392;52.578;13.426;2023-07-24T14:16:11;9.60;;;5.07;;
4756;SDS011;2392;52.578;13.426;2023-07-24T14:18:38;6.40;;;5.90;;
4756;SDS011;2392;52.578;13.426;2023-07-24T14:21:07;5.63;;;4.80;;
4756;SDS011;2392;52.578;13.426;2023-07-24T14:23:35;5.43;;;5.03;;
4756;SDS011;2392;52.578;13.426;2023-07-24T14:26:02;5.13;;;4.80;;
4756;SDS011;2392;52.578;13.426;2023-07-24T14:28:29;6.13;;;5.60;;
4756;SDS011;2392;52.578;13.426;2023-07-24T14:30:56;5.97;;;5.40;;
4756;SDS011;2392;52.578;13.426;2023-07-24T14:33:23;6.30;;;5.70;;
4756;SDS011;2392;52.578;13.426;2023-07-24T14:35:50;5.93;;;5.47;;
4756;SDS011;2392;52.578;13.426;2023-07-24T14:38:21;5.97;;;5.50;;
4756;SDS011;2392;52.578;13.426;2023-07-24T14:40:48;6.13;;;5.20;;
4756;SDS011;2392;52.578;13.426;2023-07-24T14:43:15;6.20;;;5.60;;
4756;SDS011;2392;52.578;13.426;2023-07-24T14:45:42;5.80;;;5.30;;
4756;SDS011;2392;52.578;13.426;2023-07-24T14:48:09;5.70;;;5.30;;
4756;SDS011;2392;52.578;13.426;2023-07-24T14:50:38;5.40;;;5.03;;
4756;SDS011;2392;52.578;13.426;2023-07-24T14:53:05;10.27;;;5.90;;
4756;SDS011;2392;52.578;13.426;2023-07-24T14:55:33;6.00;;;5.50;;
4756;SDS011;2392;52.578;13.426;2023-07-24T14:58:00;5.70;;;5.23;;
4756;SDS011;2392;52.578;13.426;2023-07-24T15:00:27;6.93;;;6.27;;
4756;SDS011;2392;52.578;13.426;2023-07-24T15:02:56;8.23;;;5.57;;